Time;durP1;ratioP1;P1;durP2;ratioP2;P2;SDS_P1;SDS_P2;PMS_P1;PMS_P2;Temp;Humidity;BMP_temperature;BMP_pressure;BME280_temperature;BME280_humidity;BME280_pressure;Samples;Min_cycle;Max_cycle;Signal;HPM_P1;HPM_P2
2022/11/11 00:01:22;;;;;;;27.07;14.20;;;;;;;10.63;64.59;100118.50;6186636;23;20474;-86
2022/11/11 00:03:48;;;;;;;26.53;13.43;;;;;;;10.60;64.77;100113.38;6185556;23;20151;-86
2022/11/11 00:06:15;;;;;;;29.67;13.20;;;;;;;10.58;64.63;100117.81;6161022;23;20162;-85
2022/11/11 00:08:41;;;;;;;26.10;13.30;;;;;;;10.66;64.78;100114.91;6186632;23;20618;-85
2022/11/11 00:11:09;;;;;;;26.80;12.87;;;;;;;10.65;64.68;100113.19;6159677;23;20158;-85
2022/11/11 00:13:37;;;;;;;24.73;12.70;;;;;;;10.54;65.20;100117.97;6186643;23;20186;-86
2022/11/11 00:16:07;;;;;;;27.30;13.13;;;;;;;10.47;66.16;100114.72;6185842;23;20208;-86
2022/11/11 00:26:48;;;;;;;28.40;14.73;;;;;;;10.56;65.67;100110.94;6186571;23;20552;-86
2022/11/11 00:29:14;;;;;;;23.23;12.43;;;;;;;10.56;65.70;100110.94;6186448;23;20151;-86
2022/11/11 00:32:21;;;;;;;26.90;13.93;;;;;;;10.58;64.95;100111.72;6186654;23;20572;-86
2022/11/11 00:34:25;;;;;;;40.93;14.87;;;;;;;10.57;64.72;100110.00;6186309;23;20629;-86
2022/11/11 00:36:50;;;;;;;27.10;14.47;;;;;;;10.61;64.29;100103.75;6160499;23;20192;-86
2022/11/11 00:39:16;;;;;;;32.77;14.43;;;;;;;10.56;64.03;100101.28;6186695;23;20150;-86
2022/11/11 00:41:41;;;;;;;29.53;14.60;;;;;;;10.51;63.97;100102.38;6160304;23;20570;-86
2022/11/11 00:44:07;;;;;;;22.40;13.47;;;;;;;10.61;63.55;100091.50;6186337;23;20224;-86
2022/11/11 00:52:00;;;;;;;29.07;12.80;;;;;;;10.54;64.07;100099.63;6186159;23;20205;-86
2022/11/11 00:54:25;;;;;;;24.93;12.07;;;;;;;10.53;64.34;100095.31;6160247;23;20534;-86
2022/11/11 00:56:50;;;;;;;30.00;13.53;;;;;;;10.56;64.38;100090.78;6160215;23;20618;-86
2022/11/11 00:59:16;;;;;;;25.07;12.73;;;;;;;10.53;64.34;100090.06;6186004;23;20197;-86
2022/11/11 01:01:41;;;;;;;28.23;12.27;;;;;;;10.50;64.02;100091.03;6186148;23;20146;-86
2022/11/11 01:04:07;;;;;;;29.50;13.33;;;;;;;10.51;63.87;100089.28;6184905;23;20224;-86
2022/11/11 01:06:32;;;;;;;25.10;12.53;;;;;;;10.49;63.73;100084.94;6186757;23;20150;-86
2022/11/11 01:09:03;;;;;;;26.17;13.40;;;;;;;10.48;63.39;100087.63;6186396;23;20221;-86
2022/11/11 01:11:28;;;;;;;26.33;14.10;;;;;;;10.45;63.20;100087.72;6186356;23;20134;-86
2022/11/11 01:13:54;;;;;;;36.53;15.53;;;;;;;10.38;62.84;100087.09;6159959;23;20189;-86
2022/11/11 01:16:24;;;;;;;31.17;13.10;;;;;;;10.35;62.99;100084.56;6185861;23;20537;-86
2022/11/11 01:18:51;;;;;;;24.47;12.90;;;;;;;10.33;62.83;100083.78;6159987;23;20185;-86
2022/11/11 01:21:22;;;;;;;28.70;14.00;;;;;;;10.27;63.05;100084.00;6186632;23;20157;-86
2022/11/11 01:23:49;;;;;;;28.00;12.67;;;;;;;10.24;63.49;100084.13;6186223;23;20153;-86
2022/11/11 01:26:22;;;;;;;27.07;12.83;;;;;;;10.27;63.96;100085.78;6185786;23;20211;-86
2022/11/11 01:28:51;;;;;;;24.90;11.50;;;;;;;10.25;64.00;100084.97;6185908;23;20146;-86
2022/11/11 01:31:18;;;;;;;28.70;12.70;;;;;;;10.22;63.93;100083.31;6186168;23;20150;-86
2022/11/11 01:33:44;;;;;;;24.83;13.07;;;;;;;10.30;63.75;100080.41;6186102;23;20237;-86
2022/11/11 01:36:14;;;;;;;21.57;11.63;;;;;;;10.27;63.85;100084.00;6159789;23;20177;-86
2022/11/11 01:38:41;;;;;;;25.67;12.73;;;;;;;10.24;63.48;100078.88;6186425;23;20154;-86
2022/11/11 01:43:54;;;;;;;20.93;13.00;;;;;;;10.13;63.85;100085.41;6186483;23;20204;-86
2022/11/11 01:46:37;;;;;;;27.40;12.27;;;;;;;10.11;63.99;100080.22;6184535;23;20162;-86
2022/11/11 01:49:24;;;;;;;25.90;13.43;;;;;;;10.05;64.45;100083.03;6186184;23;20133;-86
2022/11/11 01:51:56;;;;;;;20.67;11.83;;;;;;;10.03;64.90;100074.38;6186206;23;20139;-86
2022/11/11 01:54:41;;;;;;;27.70;12.10;;;;;;;10.00;64.98;100079.72;6159481;23;20162;-86
2022/11/11 01:57:25;;;;;;;25.40;11.93;;;;;;;10.01;65.20;100075.34;6186377;23;20142;-86
2022/11/11 01:59:59;;;;;;;25.40;10.57;;;;;;;10.01;65.20;100070.94;6159594;23;20457;-86
2022/11/11 02:02:32;;;;;;;23.63;11.73;;;;;;;10.07;65.10;100078.59;6185555;23;20517;-86
2022/11/11 02:07:47;;;;;;;24.93;11.60;;;;;;;10.06;65.32;100076.03;6186221;23;20153;-86
2022/11/11 02:10:12;;;;;;;19.97;10.80;;;;;;;10.06;64.93;100073.41;6185777;23;20154;-86
2022/11/11 02:15:21;;;;;;;24.43;11.60;;;;;;;10.02;64.77;100070.03;6185872;23;20208;-86
2022/11/11 02:17:48;;;;;;;23.70;11.57;;;;;;;10.04;64.41;100081.31;6185813;23;20179;-86
2022/11/11 02:20:19;;;;;;;25.97;11.70;;;;;;;10.07;64.32;100075.97;6185422;23;20174;-86
2022/11/11 02:22:50;;;;;;;25.93;11.70;;;;;;;10.04;63.90;100070.84;6186070;23;20150;-86
2022/11/11 02:25:18;;;;;;;23.20;12.60;;;;;;;9.98;64.18;100076.31;6185363;23;20576;-86
2022/11/11 02:27:48;;;;;;;23.93;13.27;;;;;;;9.93;63.64;100080.84;6159395;23;20164;-86
2022/11/11 02:30:15;;;;;;;27.13;13.17;;;;;;;9.88;63.60;100080.13;6185726;23;20151;-86
2022/11/11 02:32:46;;;;;;;25.77;12.40;;;;;;;9.84;63.40;100083.78;6185312;23;20203;-86
2022/11/11 02:35:24;;;;;;;29.93;13.53;;;;;;;9.85;63.35;100080.28;6183992;23;20261;-86
2022/11/11 02:37:52;;;;;;;25.40;12.87;;;;;;;9.87;63.06;100075.81;6185839;23;20139;-86
2022/11/11 02:40:26;;;;;;;24.10;13.00;;;;;;;9.92;62.98;100073.03;6185122;23;20521;-86
2022/11/11 02:42:51;;;;;;;22.53;11.97;;;;;;;9.89;63.09;100076.63;6184141;23;20155;-86
2022/11/11 02:45:17;;;;;;;24.40;14.17;;;;;;;9.81;62.94;100071.66;6185280;23;20150;-86
2022/11/11 02:47:42;;;;;;;25.40;12.53;;;;;;;9.75;63.44;100066.63;6185728;23;20233;-85
2022/11/11 02:50:08;;;;;;;27.13;13.30;;;;;;;9.70;63.36;100075.53;6185562;23;20153;-85
2022/11/11 02:52:33;;;;;;;22.27;12.10;;;;;;;9.68;63.21;100069.50;6185115;23;20612;-85
2022/11/11 02:54:59;;;;;;;25.87;13.70;;;;;;;9.66;63.70;100073.94;6185171;23;20173;-85
2022/11/11 02:57:25;;;;;;;26.07;12.27;;;;;;;9.61;63.50;100071.50;6185224;23;20176;-86
2022/11/11 02:59:50;;;;;;;28.10;13.47;;;;;;;9.60;63.69;100068.91;6158970;23;20152;-86
2022/11/11 03:02:16;;;;;;;26.40;12.53;;;;;;;9.60;63.91;100075.00;6185153;23;20154;-85
2022/11/11 03:04:41;;;;;;;27.70;12.97;;;;;;;9.56;64.32;100070.78;6185163;23;20233;-86
2022/11/11 03:07:07;;;;;;;23.90;12.50;;;;;;;9.56;63.84;100072.53;6185415;23;20568;-86
2022/11/11 03:09:33;;;;;;;26.30;14.23;;;;;;;9.62;64.12;100080.16;6159089;23;20153;-86
2022/11/11 03:11:59;;;;;;;29.17;13.27;;;;;;;9.54;64.64;100074.38;6185349;23;20480;-86
2022/11/11 03:14:24;;;;;;;28.10;13.97;;;;;;;9.57;64.71;100082.94;6185156;23;20153;-86
2022/11/11 03:19:33;;;;;;;25.37;13.10;;;;;;;9.50;65.56;100085.81;6185779;23;20232;-86
2022/11/11 03:22:00;;;;;;;23.33;11.50;;;;;;;9.56;65.95;100083.00;6158894;23;20579;-86
2022/11/11 03:25:36;;;;;;;25.30;12.63;;;;;;;9.60;66.27;100102.94;6185095;23;20490;-86
2022/11/11 03:27:11;;;;;;;23.93;12.20;;;;;;;9.56;66.41;100096.97;6185594;23;20213;-86
2022/11/11 03:29:37;;;;;;;26.83;12.03;;;;;;;9.55;66.54;100097.84;6185176;23;20525;-86
2022/11/11 03:32:03;;;;;;;19.77;11.63;;;;;;;9.48;67.39;100095.50;6184910;23;20176;-86
2022/11/11 03:34:28;;;;;;;22.37;11.07;;;;;;;9.44;67.98;100088.63;6184762;23;20146;-85
2022/11/11 03:39:37;;;;;;;20.33;11.37;;;;;;;9.49;68.71;100094.56;6185733;23;20509;-86
2022/11/11 03:42:03;;;;;;;22.67;11.53;;;;;;;9.59;68.77;100093.38;6184968;23;20198;-86
2022/11/11 03:44:28;;;;;;;24.63;11.10;;;;;;;9.65;68.39;100088.78;6158964;23;20171;-85
2022/11/11 03:46:54;;;;;;;27.30;12.53;;;;;;;9.67;67.88;100088.75;6185279;23;20174;-86
2022/11/11 03:49:20;;;;;;;25.67;12.10;;;;;;;9.58;66.97;100087.28;6185743;23;20555;-86
2022/11/11 03:51:45;;;;;;;25.77;12.57;;;;;;;9.66;66.66;100094.88;6187104;23;20169;-86
2022/11/11 03:54:11;;;;;;;30.40;13.13;;;;;;;9.63;66.29;100089.75;6160710;23;20189;-86
2022/11/11 03:56:37;;;;;;;24.73;11.07;;;;;;;9.63;66.02;100089.75;6160728;23;20211;-86
2022/11/11 03:59:02;;;;;;;23.23;10.23;;;;;;;9.75;66.13;100084.94;6186730;23;20159;-86
2022/11/11 04:18:08;;;;;;;21.17;11.83;;;;;;;9.72;66.00;100079.81;6187037;23;20145;-86
2022/11/11 04:23:17;;;;;;;29.83;12.13;;;;;;;9.71;65.54;100090.34;6187313;23;20226;-86
2022/11/11 04:25:48;;;;;;;27.83;13.43;;;;;;;9.72;64.92;100097.31;6160596;23;20539;-86
2022/11/11 04:30:59;;;;;;;33.83;14.60;;;;;;;9.63;65.14;100089.75;6186840;23;20225;-86
2022/11/11 04:33:24;;;;;;;23.20;12.10;;;;;;;9.63;65.14;100088.00;6185117;23;20560;-86
2022/11/11 04:35:50;;;;;;;27.20;13.40;;;;;;;9.57;65.14;100087.31;6186350;23;20193;-86
2022/11/11 04:41:02;;;;;;;27.97;14.53;;;;;;;9.56;65.26;100091.72;6187113;23;20166;-86
2022/11/11 04:43:29;;;;;;;37.53;15.13;;;;;;;9.55;65.38;100090.00;6186252;23;20149;-86
2022/11/11 04:45:59;;;;;;;27.87;12.80;;;;;;;9.53;65.61;100089.22;6160357;23;20482;-86
2022/11/11 04:48:24;;;;;;;28.03;13.93;;;;;;;9.54;65.51;100092.69;6186360;23;20153;-86
2022/11/11 04:50:49;;;;;;;36.03;14.70;;;;;;;9.51;65.45;100100.63;6186286;23;20555;-86
2022/11/11 04:53:15;;;;;;;30.87;14.73;;;;;;;9.50;65.34;100098.91;6186117;23;20570;-86
2022/11/11 04:58:32;;;;;;;23.77;12.23;;;;;;;9.55;65.72;100102.22;6186632;23;20151;-86
2022/11/11 05:00:58;;;;;;;24.10;12.53;;;;;;;9.61;65.68;100112.50;6186292;23;20471;-86
2022/11/11 05:03:23;;;;;;;27.93;12.10;;;;;;;9.63;65.45;100102.84;6186476;23;20150;-86
2022/11/11 05:08:55;;;;;;;25.70;12.23;;;;;;;9.43;66.48;100113.09;6186426;23;20214;-86
2022/11/11 05:11:24;;;;;;;21.80;12.30;;;;;;;9.45;67.06;100124.38;6159972;23;20156;-86
2022/11/11 05:22:24;;;;;;;19.60;10.03;;;;;;;9.65;68.04;100129.81;6186656;23;20601;-86
2022/11/11 05:27:33;;;;;;;21.03;9.77;;;;;;;9.69;68.97;100136.66;6186668;23;20189;-85
2022/11/11 05:29:59;;;;;;;22.00;10.53;;;;;;;9.59;70.43;100140.50;6185869;23;20562;-86
2022/11/11 05:32:25;;;;;;;16.20;9.17;;;;;;;9.71;70.88;100140.09;6185637;23;20180;-86
2022/11/11 05:34:51;;;;;;;22.27;10.87;;;;;;;9.86;70.87;100139.56;6160177;23;20225;-86
2022/11/11 05:37:17;;;;;;;17.90;8.70;;;;;;;9.89;71.06;100142.94;6185840;23;20561;-86
2022/11/11 05:39:43;;;;;;;29.10;12.03;;;;;;;9.98;71.56;100154.03;6185777;23;20618;-86
2022/11/11 05:42:09;;;;;;;21.50;10.43;;;;;;;10.06;71.98;100141.53;6186018;23;20270;-86
2022/11/11 05:44:35;;;;;;;24.40;11.60;;;;;;;10.21;71.81;100156.75;6186051;23;20177;-86
2022/11/11 05:47:00;;;;;;;19.77;11.53;;;;;;;10.35;71.91;100163.19;6159636;23;20633;-85
2022/11/11 05:49:26;;;;;;;24.43;11.73;;;;;;;10.45;71.64;100161.94;6160107;23;20483;-86
2022/11/11 05:51:54;;;;;;;23.23;11.97;;;;;;;10.54;70.75;100160.78;6185566;23;20209;-86
2022/11/11 05:54:20;;;;;;;26.43;12.80;;;;;;;10.64;69.77;100156.06;6186230;23;20478;-86
2022/11/11 05:56:46;;;;;;;25.70;12.40;;;;;;;10.70;69.43;100161.94;6185650;23;20147;-86
2022/11/11 05:59:11;;;;;;;28.90;12.83;;;;;;;10.75;68.53;100164.38;6159549;23;20217;-86
2022/11/11 06:01:37;;;;;;;26.83;12.27;;;;;;;10.81;67.73;100164.16;6159646;23;20158;-86
2022/11/11 06:04:04;;;;;;;26.87;12.90;;;;;;;10.92;67.30;100167.25;6185494;23;20142;-86
2022/11/11 06:06:30;;;;;;;20.33;11.50;;;;;;;11.01;67.32;100164.25;6185545;23;20150;-86
2022/11/11 06:08:55;;;;;;;22.80;11.80;;;;;;;11.14;67.16;100172.53;6160384;23;20519;-86
2022/11/11 06:11:21;;;;;;;23.97;12.80;;;;;;;11.25;67.08;100173.81;6185522;23;20146;-86
2022/11/11 06:13:47;;;;;;;22.37;11.30;;;;;;;11.35;66.92;100182.19;6184979;23;20216;-86
2022/11/11 06:16:12;;;;;;;21.80;11.73;;;;;;;11.41;66.33;100169.69;6185549;23;20151;-86
2022/11/11 06:18:38;;;;;;;28.20;13.10;;;;;;;11.46;66.40;100172.97;6185428;23;20219;-86
2022/11/11 06:21:04;;;;;;;24.77;12.57;;;;;;;11.49;65.87;100178.13;6185493;23;20147;-86
2022/11/11 06:23:29;;;;;;;30.83;15.90;;;;;;;11.58;65.88;100175.09;6185466;23;20146;-86
2022/11/11 06:26:14;;;;;;;38.83;19.07;;;;;;;11.70;65.32;100176.44;6159361;23;20158;-86
2022/11/11 06:28:44;;;;;;;55.57;23.20;;;;;;;11.79;64.95;100177.84;6185645;23;20543;-86
2022/11/11 06:31:12;;;;;;;55.17;25.73;;;;;;;11.79;63.96;100177.84;6185314;23;20147;-86
2022/11/11 06:33:38;;;;;;;39.33;17.70;;;;;;;11.87;63.88;100173.13;6159213;23;20250;-86
2022/11/11 06:36:04;;;;;;;34.27;15.50;;;;;;;11.94;63.35;100179.81;6185231;23;20166;-85
2022/11/11 06:38:30;;;;;;;46.00;16.67;;;;;;;12.15;63.52;100186.81;6185616;23;20237;-86
2022/11/11 06:40:56;;;;;;;33.80;15.90;;;;;;;12.54;62.07;100185.09;6159263;23;20154;-86
2022/11/11 06:43:21;;;;;;;36.97;15.20;;;;;;;12.89;59.79;100183.53;6159296;23;20150;-86
2022/11/11 06:45:51;;;;;;;32.77;14.63;;;;;;;13.05;59.25;100187.16;6185175;23;20173;-86
2022/11/11 06:48:17;;;;;;;30.70;14.53;;;;;;;13.27;58.33;100187.06;6185235;23;20490;-86
2022/11/11 06:50:42;;;;;;;36.87;17.20;;;;;;;13.57;57.83;100192.66;6159172;23;20162;-86
2022/11/11 06:53:12;;;;;;;28.83;14.47;;;;;;;13.61;56.83;100184.53;6159806;23;20189;-86
2022/11/11 06:55:38;;;;;;;28.60;13.53;;;;;;;13.58;56.98;100176.78;6185205;23;20214;-86
2022/11/11 06:58:12;;;;;;;31.77;13.53;;;;;;;13.49;57.18;100190.41;6159251;23;20230;-86
2022/11/11 07:00:38;;;;;;;32.73;13.67;;;;;;;13.43;58.03;100182.78;6185565;23;20547;-86
2022/11/11 07:03:05;;;;;;;27.40;13.07;;;;;;;13.45;58.49;100181.78;6159113;23;20580;-86
2022/11/11 07:05:32;;;;;;;30.60;13.10;;;;;;;13.57;59.39;100181.19;6185545;23;20152;-87
2022/11/11 07:08:04;;;;;;;27.33;12.17;;;;;;;13.71;59.65;100180.50;6159041;23;20155;-87
2022/11/11 07:10:31;;;;;;;30.20;12.13;;;;;;;13.94;59.24;100177.59;6185814;23;20197;-87
2022/11/11 07:12:57;;;;;;;26.60;13.67;;;;;;;14.12;58.28;100179.31;6159095;23;20182;-87
2022/11/11 07:15:23;;;;;;;30.90;13.00;;;;;;;14.21;58.03;100179.78;6185136;23;20663;-87
2022/11/11 07:17:48;;;;;;;33.30;13.27;;;;;;;14.34;57.72;100186.16;6158878;23;20150;-87
2022/11/11 07:20:14;;;;;;;25.30;12.87;;;;;;;14.44;57.87;100190.88;6159113;23;20154;-87
2022/11/11 07:22:39;;;;;;;26.03;12.77;;;;;;;14.53;57.41;100195.72;6184119;23;20158;-87
2022/11/11 07:25:05;;;;;;;27.90;12.17;;;;;;;14.51;57.36;100184.38;6185899;23;20574;-87
2022/11/11 07:27:31;;;;;;;29.67;13.33;;;;;;;14.57;57.76;100191.97;6187318;23;20177;-87
2022/11/11 07:29:56;;;;;;;26.50;12.97;;;;;;;14.66;58.07;100198.56;6161406;23;20182;-87
2022/11/11 07:32:21;;;;;;;24.73;13.20;;;;;;;14.66;58.36;100198.56;6187361;23;20236;-87
2022/11/11 07:34:49;;;;;;;29.20;13.23;;;;;;;14.69;58.92;100201.03;6187257;23;20564;-87
2022/11/11 07:37:14;;;;;;;28.33;12.80;;;;;;;14.77;59.22;100198.84;6160974;23;20176;-87
2022/11/11 07:39:40;;;;;;;31.40;14.33;;;;;;;14.82;59.43;100196.81;6161269;23;20558;-87
2022/11/11 07:42:05;;;;;;;27.23;14.57;;;;;;;14.86;59.69;100201.00;6186916;23;20582;-87
2022/11/11 07:44:30;;;;;;;26.47;12.37;;;;;;;15.13;58.76;100196.88;6186848;23;20155;-87
2022/11/11 07:46:56;;;;;;;21.47;11.77;;;;;;;15.26;58.62;100195.28;6187185;23;20234;-87
2022/11/11 07:49:21;;;;;;;24.43;11.37;;;;;;;15.55;58.26;100190.19;6186790;23;20554;-87
2022/11/11 07:51:47;;;;;;;26.00;10.77;;;;;;;15.69;57.83;100192.91;6186836;23;20162;-88
2022/11/11 07:54:12;;;;;;;22.43;11.10;;;;;;;15.87;57.12;100183.94;6187105;23;20513;-87
2022/11/11 07:56:38;;;;;;;24.57;10.50;;;;;;;15.94;56.86;100185.28;6161493;23;20642;-87
2022/11/11 07:59:03;;;;;;;23.07;10.83;;;;;;;15.95;57.19;100190.50;6187358;23;20152;-88
2022/11/11 08:01:29;;;;;;;22.00;10.57;;;;;;;15.96;56.42;100183.38;6160817;23;20160;-89
2022/11/11 08:03:54;;;;;;;20.57;11.07;;;;;;;16.10;56.38;100180.81;6186735;23;20177;-88
2022/11/11 08:06:21;;;;;;;25.17;11.53;;;;;;;16.15;57.10;100188.47;6160747;23;20545;-88
2022/11/11 08:08:48;;;;;;;20.73;11.10;;;;;;;16.44;56.15;100185.81;6186968;23;20182;-88
2022/11/11 08:11:14;;;;;;;22.63;11.67;;;;;;;16.61;55.51;100187.47;6187032;23;20235;-88
2022/11/11 08:13:42;;;;;;;20.03;10.43;;;;;;;16.83;55.37;100182.56;6186527;23;20187;-87
2022/11/11 08:16:12;;;;;;;19.80;10.97;;;;;;;17.08;54.82;100185.41;6161077;23;20156;-88
2022/11/11 08:18:37;;;;;;;21.47;10.33;;;;;;;17.21;53.52;100188.13;6186362;23;20154;-89
2022/11/11 08:21:04;;;;;;;21.20;10.43;;;;;;;17.34;53.24;100191.72;6160525;23;20181;-88
2022/11/11 08:23:33;;;;;;;21.73;10.73;;;;;;;17.66;52.64;100185.22;6160766;23;20161;-88
2022/11/11 08:25:59;;;;;;;25.00;11.07;;;;;;;17.89;51.51;100186.38;6160426;23;20205;-88
2022/11/11 08:28:26;;;;;;;17.70;9.10;;;;;;;18.17;50.59;100180.94;6160743;23;20204;-88
2022/11/11 08:30:51;;;;;;;23.27;9.70;;;;;;;18.19;50.89;100184.31;6186890;23;20147;-88
2022/11/11 08:33:17;;;;;;;21.10;10.67;;;;;;;18.23;50.42;100183.19;6161673;23;20194;-88
2022/11/11 08:35:43;;;;;;;22.93;10.73;;;;;;;18.15;49.93;100187.28;6186121;23;20544;-87
2022/11/11 08:38:08;;;;;;;18.17;9.47;;;;;;;18.03;50.03;100183.63;6186127;23;20209;-88
2022/11/11 08:40:34;;;;;;;22.50;11.47;;;;;;;18.04;50.46;100190.66;6160717;23;20151;-88
2022/11/11 08:42:59;;;;;;;25.63;10.43;;;;;;;18.08;50.54;100189.50;6160752;23;20155;-88
2022/11/11 08:45:25;;;;;;;22.47;10.63;;;;;;;18.01;50.77;100195.31;6186700;23;20485;-88
2022/11/11 08:47:51;;;;;;;22.87;10.93;;;;;;;17.98;50.47;100192.84;6186952;23;20151;-88
2022/11/11 08:50:17;;;;;;;21.10;9.87;;;;;;;17.99;51.19;100199.88;6185441;23;20189;-88
2022/11/11 08:52:50;;;;;;;27.07;10.80;;;;;;;18.13;50.49;100194.50;6160541;23;20183;-88
2022/11/11 08:55:17;;;;;;;23.17;10.47;;;;;;;17.94;50.25;100200.19;6186566;23;20482;-88
2022/11/11 08:57:42;;;;;;;19.03;9.93;;;;;;;17.86;51.32;100198.97;6160534;23;20158;-88
2022/11/11 09:00:09;;;;;;;21.93;10.83;;;;;;;17.87;50.66;100200.69;6186036;23;20154;-88
2022/11/11 09:02:35;;;;;;;20.00;10.60;;;;;;;17.84;50.88;100199.09;6160584;23;20297;-88
2022/11/11 09:05:02;;;;;;;16.40;9.93;;;;;;;17.77;51.14;100200.41;6183974;23;20208;-88
2022/11/11 09:07:28;;;;;;;19.43;10.43;;;;;;;17.78;51.05;100196.81;6158283;23;20162;-87
2022/11/11 09:09:55;;;;;;;23.33;9.97;;;;;;;17.79;51.09;100191.41;6160338;23;20182;-88
2022/11/11 09:12:21;;;;;;;23.27;10.57;;;;;;;17.80;51.17;100201.09;6160267;23;20178;-87
2022/11/11 09:14:48;;;;;;;22.57;10.27;;;;;;;18.06;50.70;100193.19;6185606;23;20240;-88
2022/11/11 09:17:17;;;;;;;23.00;11.33;;;;;;;17.98;50.94;100190.19;6185877;23;20229;-88
2022/11/11 09:19:44;;;;;;;25.87;9.97;;;;;;;18.04;50.71;100187.16;6186385;23;20208;-88
2022/11/11 09:22:09;;;;;;;22.43;12.13;;;;;;;18.00;50.96;100178.56;6185859;23;20188;-88
2022/11/11 09:24:36;;;;;;;24.17;9.77;;;;;;;18.21;50.67;100181.59;6159654;23;20249;-89
2022/11/11 09:27:03;;;;;;;19.70;11.17;;;;;;;18.37;50.13;100187.53;6185587;23;20195;-88
2022/11/11 09:29:30;;;;;;;20.33;9.63;;;;;;;18.50;49.48;100179.63;6159600;23;20181;-88
2022/11/11 09:31:57;;;;;;;19.37;9.50;;;;;;;18.52;49.41;100183.88;6184774;23;20234;-88
2022/11/11 09:34:24;;;;;;;26.07;11.00;;;;;;;18.48;49.11;100177.06;6159448;23;20195;-89
2022/11/11 09:36:51;;;;;;;21.03;10.90;;;;;;;18.42;49.05;100180.13;6132176;23;20209;-89
2022/11/11 09:39:17;;;;;;;20.57;10.20;;;;;;;18.54;49.03;100184.63;6130419;23;20163;-88
2022/11/11 09:41:52;;;;;;;24.57;12.03;;;;;;;18.58;48.81;100170.16;6130882;23;20221;-88
2022/11/11 09:44:28;;;;;;;21.47;10.73;;;;;;;18.41;48.98;100171.31;6130113;23;20147;-87
2022/11/11 09:47:09;;;;;;;21.43;10.47;;;;;;;18.41;49.25;100173.97;6131248;23;20147;-88
2022/11/11 09:50:08;;;;;;;27.27;12.07;;;;;;;18.63;48.79;100180.50;6151990;23;20139;-88
2022/11/11 09:53:08;;;;;;;18.77;10.73;;;;;;;18.72;48.16;100178.03;6149874;23;20191;-88
2022/11/11 09:56:11;;;;;;;27.53;11.50;;;;;;;18.76;48.76;100190.13;6141028;23;20155;-88
2022/11/11 09:58:47;;;;;;;24.07;12.07;;;;;;;18.67;48.55;100180.16;6109056;23;20164;-88
2022/11/11 10:01:24;;;;;;;20.93;11.33;;;;;;;18.62;48.60;100174.31;6156051;23;20168;-89
2022/11/11 10:04:18;;;;;;;22.83;12.23;;;;;;;18.62;48.41;100179.63;6155642;23;20135;-88
2022/11/11 10:06:47;;;;;;;20.67;11.17;;;;;;;18.65;48.70;100170.59;6156079;23;20539;-89
2022/11/11 10:09:44;;;;;;;22.13;11.60;;;;;;;18.68;49.06;100171.25;6105595;23;20491;-88
2022/11/11 10:12:18;;;;;;;20.90;10.77;;;;;;;18.76;48.59;100174.19;6154817;23;20145;-88
2022/11/11 10:14:48;;;;;;;22.17;11.00;;;;;;;18.85;48.19;100157.63;6156073;23;20214;-88
2022/11/11 10:17:36;;;;;;;24.87;12.23;;;;;;;18.75;48.44;100155.72;6155442;23;20218;-89
2022/11/11 10:20:32;;;;;;;23.83;10.13;;;;;;;18.67;48.97;100168.69;6130207;23;20144;-88
2022/11/11 10:23:20;;;;;;;25.93;10.73;;;;;;;18.66;48.81;100166.97;6155270;23;20158;-89
2022/11/11 10:26:19;;;;;;;21.33;10.33;;;;;;;18.68;48.74;100163.28;6105579;23;20158;-88
2022/11/11 10:28:49;;;;;;;17.30;9.23;;;;;;;18.76;48.56;100163.56;6155845;23;20144;-88
2022/11/11 10:31:22;;;;;;;24.27;11.83;;;;;;;18.74;48.59;100170.81;6130175;23;20151;-88
2022/11/11 10:34:10;;;;;;;23.60;12.03;;;;;;;18.75;48.62;100169.88;6104978;23;20186;-88
2022/11/11 10:36:43;;;;;;;23.03;11.23;;;;;;;18.78;48.73;100167.00;6132999;23;20226;-88
2022/11/11 10:39:12;;;;;;;27.60;13.00;;;;;;;18.86;48.97;100169.97;6105835;23;20179;-89
2022/11/11 10:41:41;;;;;;;24.47;10.90;;;;;;;18.85;48.96;100168.25;6130067;23;20595;-88
2022/11/11 10:44:31;;;;;;;22.57;11.47;;;;;;;18.91;48.71;100159.88;6129470;23;20165;-88
2022/11/11 10:47:35;;;;;;;24.83;10.80;;;;;;;18.93;48.86;100163.25;6156040;23;20194;-88
2022/11/11 10:50:30;;;;;;;22.93;11.30;;;;;;;18.91;49.05;100159.00;6155029;23;20144;-88
2022/11/11 10:53:11;;;;;;;22.13;10.20;;;;;;;19.00;49.02;100161.84;6129570;23;20175;-88
2022/11/11 10:55:46;;;;;;;22.33;11.27;;;;;;;19.03;48.51;100158.97;6129547;23;20170;-90
2022/11/11 10:58:26;;;;;;;21.57;10.53;;;;;;;18.95;48.77;100156.03;6129610;23;20151;-88
2022/11/11 11:00:54;;;;;;;18.73;10.13;;;;;;;19.03;48.81;100151.00;6154982;23;20161;-88
2022/11/11 11:03:34;;;;;;;18.97;10.13;;;;;;;19.05;48.57;100158.03;6129572;23;20153;-88
2022/11/11 11:06:09;;;;;;;28.77;13.00;;;;;;;18.90;49.05;100158.16;6129411;23;20139;-88
2022/11/11 11:08:44;;;;;;;22.10;11.23;;;;;;;18.88;49.04;100153.91;6129437;23;20248;-88
2022/11/11 11:11:38;;;;;;;26.90;10.93;;;;;;;18.88;49.11;100153.91;6129432;23;20241;-88
2022/11/11 11:14:21;;;;;;;25.17;11.60;;;;;;;19.02;48.93;100154.63;6120778;23;20207;-87
2022/11/11 11:16:50;;;;;;;26.60;11.90;;;;;;;19.00;48.72;100143.25;6155440;23;20156;-87
2022/11/11 11:19:20;;;;;;;26.20;12.07;;;;;;;18.98;49.02;100146.97;6155116;23;20150;-88
2022/11/11 11:21:56;;;;;;;25.93;10.93;;;;;;;18.77;49.63;100149.34;6129723;23;20160;-88
2022/11/11 11:24:23;;;;;;;29.33;12.83;;;;;;;18.87;49.31;100149.53;6155242;23;20154;-88
2022/11/11 11:26:51;;;;;;;26.00;11.13;;;;;;;18.78;49.69;100150.22;6129671;23;20163;-88
2022/11/11 11:29:43;;;;;;;25.20;11.10;;;;;;;18.74;49.62;100154.88;6129749;23;20166;-88
2022/11/11 11:32:16;;;;;;;26.97;11.50;;;;;;;18.77;49.81;100156.47;6154391;23;20137;-88
2022/11/11 11:34:43;;;;;;;26.73;12.17;;;;;;;18.78;49.70;100142.22;6128067;23;20161;-87
2022/11/11 11:37:08;;;;;;;35.97;12.43;;;;;;;18.68;50.08;100147.34;6182731;23;20166;-89
2022/11/11 11:39:37;;;;;;;26.50;12.20;;;;;;;18.65;50.21;100138.72;6158887;23;20543;-88
2022/11/11 11:42:02;;;;;;;26.13;12.07;;;;;;;18.70;50.14;100140.13;6158991;23;20214;-88
2022/11/11 11:44:34;;;;;;;25.13;13.07;;;;;;;18.75;50.32;100135.34;6158925;23;20559;-88
2022/11/11 11:47:08;;;;;;;26.43;11.50;;;;;;;18.70;50.45;100136.59;6185349;23;20151;-88
2022/11/11 11:50:01;;;;;;;18.87;10.57;;;;;;;18.72;50.55;100138.19;6159715;23;20524;-88
2022/11/11 11:52:50;;;;;;;23.77;11.67;;;;;;;18.63;50.59;100135.34;6185193;23;20207;-89
2022/11/11 11:55:22;;;;;;;28.30;12.57;;;;;;;18.42;51.66;100142.97;6185275;23;20139;-88
2022/11/11 11:57:50;;;;;;;30.97;12.50;;;;;;;18.50;51.24;100143.28;6159022;23;20585;-88
2022/11/11 12:00:27;;;;;;;24.93;12.90;;;;;;;18.47;51.56;100135.56;6184960;23;20171;-88
2022/11/11 12:03:35;;;;;;;26.40;13.00;;;;;;;18.52;51.60;100138.75;6185333;23;20254;-88
2022/11/11 12:06:13;;;;;;;22.43;12.53;;;;;;;18.42;51.92;100141.13;6159293;23;20240;-87
2022/11/11 12:08:54;;;;;;;26.53;12.80;;;;;;;18.49;52.28;100144.25;6184051;23;20157;-88
2022/11/11 12:11:37;;;;;;;31.10;13.90;;;;;;;18.29;53.33;100147.41;6185831;23;20139;-88
2022/11/11 12:14:21;;;;;;;28.83;14.60;;;;;;;18.14;54.82;100151.09;6187316;23;20181;-88
2022/11/11 12:16:59;;;;;;;25.47;13.20;;;;;;;17.86;55.66;100151.22;6160673;23;20154;-88
2022/11/11 12:19:46;;;;;;;32.53;14.60;;;;;;;17.88;56.02;100149.31;6186600;23;20598;-87
2022/11/11 12:22:32;;;;;;;28.73;14.20;;;;;;;17.80;56.37;100145.38;6186977;23;20161;-87
2022/11/11 12:25:23;;;;;;;34.50;14.83;;;;;;;17.78;56.48;100144.63;6186919;23;20149;-87
2022/11/11 12:28:18;;;;;;;32.93;15.10;;;;;;;17.86;56.73;100151.22;6163018;23;20233;-87
2022/11/11 12:30:51;;;;;;;34.70;16.47;;;;;;;17.78;57.02;100147.28;6160401;23;20147;-88
2022/11/11 12:33:31;;;;;;;35.97;17.77;;;;;;;17.78;57.50;100152.59;6187114;23;20176;-88
2022/11/11 12:36:06;;;;;;;39.03;16.57;;;;;;;17.59;58.66;100157.41;6160309;23;20336;-88